createdAt,value
2022-10-23T00:01:44.885Z,12.00
2022-10-23T00:04:17.430Z,11.90
2022-10-23T00:06:44.998Z,11.90
2022-10-23T00:09:14.473Z,11.90
2022-10-23T00:11:42.137Z,11.90
2022-10-23T00:14:09.448Z,11.80
2022-10-23T00:16:37.009Z,11.90
2022-10-23T00:19:04.594Z,11.80
2022-10-23T00:21:31.678Z,11.80
2022-10-23T00:23:58.784Z,11.80
2022-10-23T00:26:25.630Z,11.80
2022-10-23T00:28:53.955Z,11.70
2022-10-23T00:31:22.426Z,11.70
2022-10-23T00:33:49.621Z,11.70
2022-10-23T00:36:18.743Z,11.70
2022-10-23T00:38:46.188Z,11.70
2022-10-23T00:41:25.607Z,11.60
2022-10-23T00:44:03.859Z,11.60
2022-10-23T00:46:31.779Z,11.60
2022-10-23T00:48:59.549Z,11.60
2022-10-23T00:51:31.241Z,11.50
2022-10-23T00:54:22.910Z,11.50
2022-10-23T00:56:47.847Z,11.50
2022-10-23T00:59:14.950Z,11.50
2022-10-23T01:01:41.917Z,11.40
2022-10-23T01:04:09.826Z,11.40
2022-10-23T01:06:47.579Z,11.40
2022-10-23T01:09:20.497Z,11.40
2022-10-23T01:11:57.729Z,11.40
2022-10-23T01:14:37.413Z,11.40
2022-10-23T01:17:25.648Z,11.30
2022-10-23T01:20:10.930Z,11.40
2022-10-23T01:22:59.253Z,11.30
2022-10-23T01:25:35.250Z,11.30
2022-10-23T01:28:08.424Z,11.30
2022-10-23T01:33:17.990Z,11.30
2022-10-23T01:36:16.448Z,11.30
2022-10-23T01:38:52.756Z,11.20
2022-10-23T01:41:48.717Z,11.20
2022-10-23T01:44:29.539Z,11.20
2022-10-23T01:46:58.074Z,11.20
2022-10-23T01:49:29.462Z,11.10
2022-10-23T01:52:01.734Z,11.20
2022-10-23T01:54:31.646Z,11.20
2022-10-23T01:56:59.093Z,11.20
2022-10-23T01:59:36.816Z,11.20
2022-10-23T02:02:06.783Z,11.20
2022-10-23T02:04:53.498Z,11.20
2022-10-23T02:07:20.229Z,11.10
2022-10-23T02:09:47.507Z,11.10
2022-10-23T02:14:57.165Z,11.10
2022-10-23T02:17:43.419Z,11.10
2022-10-23T02:20:28.991Z,11.10
2022-10-23T02:23:16.857Z,11.10
2022-10-23T02:26:00.529Z,11.10
2022-10-23T02:28:34.703Z,11.10
2022-10-23T02:31:05.231Z,11.10
2022-10-23T02:33:34.602Z,11.10
2022-10-23T02:36:01.908Z,11.10
2022-10-23T02:38:35.320Z,11.10
2022-10-23T02:41:22.518Z,11.10
2022-10-23T02:44:26.994Z,11.10
2022-10-23T02:47:14.759Z,11.10
2022-10-23T02:49:49.810Z,11.10
2022-10-23T02:52:27.850Z,11.10
2022-10-23T02:55:16.252Z,11.10
2022-10-23T02:58:04.117Z,11.10
2022-10-23T03:00:33.782Z,11.10
2022-10-23T03:03:10.477Z,11.10
2022-10-23T03:05:40.602Z,11.10
2022-10-23T03:08:12.955Z,11.10
2022-10-23T03:10:41.000Z,11.10
2022-10-23T03:13:09.740Z,11.00
2022-10-23T03:15:43.736Z,11.10
2022-10-23T03:18:13.679Z,11.00
2022-10-23T03:20:45.363Z,11.00
2022-10-23T03:23:13.908Z,11.00
2022-10-23T03:25:41.037Z,11.00
2022-10-23T03:28:07.904Z,10.90
2022-10-23T03:30:36.205Z,11.00
2022-10-23T03:33:03.011Z,11.00
2022-10-23T03:35:29.827Z,11.00
2022-10-23T03:37:56.595Z,11.00
2022-10-23T03:40:26.892Z,11.00
2022-10-23T03:42:53.694Z,11.10
2022-10-23T03:45:20.594Z,11.10
2022-10-23T03:47:50.589Z,11.10
2022-10-23T03:50:19.296Z,11.10
2022-10-23T03:52:46.262Z,11.20
2022-10-23T03:55:13.409Z,11.20
2022-10-23T03:57:40.147Z,11.10
2022-10-23T04:00:08.185Z,11.10
2022-10-23T04:02:43.378Z,11.10
2022-10-23T04:05:11.137Z,11.10
2022-10-23T04:07:40.130Z,11.10
2022-10-23T04:10:07.650Z,11.10
2022-10-23T04:12:35.314Z,11.10
2022-10-23T04:15:02.149Z,11.00
2022-10-23T04:17:28.997Z,11.00
2022-10-23T04:19:56.038Z,11.00
2022-10-23T04:22:24.823Z,11.00
2022-10-23T04:24:54.593Z,11.00
2022-10-23T04:27:21.403Z,11.00
2022-10-23T04:29:49.250Z,11.00
2022-10-23T04:32:16.042Z,11.00
2022-10-23T04:34:44.245Z,11.10
2022-10-23T04:37:10.967Z,11.10
2022-10-23T04:39:38.356Z,11.10
2022-10-23T04:42:05.173Z,11.10
2022-10-23T04:44:31.889Z,11.10
2022-10-23T04:46:58.721Z,11.20
2022-10-23T04:49:25.884Z,11.20
2022-10-23T04:52:10.848Z,11.20
2022-10-23T04:55:10.136Z,11.20
2022-10-23T04:57:52.307Z,11.20
2022-10-23T05:00:23.287Z,11.10
2022-10-23T05:02:53.528Z,11.20
2022-10-23T05:05:21.318Z,11.20
2022-10-23T05:08:04.698Z,11.20
2022-10-23T05:10:47.257Z,11.10
2022-10-23T05:13:16.556Z,11.10
2022-10-23T05:15:44.736Z,11.20
2022-10-23T05:18:31.780Z,11.10
2022-10-23T05:21:08.429Z,11.10
2022-10-23T05:23:37.011Z,11.10
2022-10-23T05:26:04.794Z,11.10
2022-10-23T05:28:32.525Z,11.10
2022-10-23T05:31:02.493Z,11.10
2022-10-23T05:33:31.117Z,11.10
2022-10-23T05:35:58.616Z,11.10
2022-10-23T05:38:27.709Z,11.10
2022-10-23T05:40:55.087Z,11.10
2022-10-23T05:43:23.181Z,11.10
2022-10-23T05:45:55.898Z,11.10
2022-10-23T05:48:45.869Z,11.10
2022-10-23T05:51:38.689Z,11.10
2022-10-23T05:54:31.634Z,11.10
2022-10-23T05:57:04.480Z,11.10
2022-10-23T05:59:34.599Z,11.10
2022-10-23T06:02:20.350Z,11.10
2022-10-23T06:05:07.809Z,11.10
2022-10-23T06:07:40.778Z,11.10
2022-10-23T06:10:09.613Z,11.20
2022-10-23T06:12:40.671Z,11.10
2022-10-23T06:15:11.166Z,11.20
2022-10-23T06:18:01.068Z,11.20
2022-10-23T06:20:29.776Z,11.10
2022-10-23T06:23:08.816Z,11.10
2022-10-23T06:25:55.749Z,11.10
2022-10-23T06:28:30.817Z,11.10
2022-10-23T06:30:58.505Z,11.10
2022-10-23T06:33:25.359Z,11.10
2022-10-23T06:35:55.452Z,11.10
2022-10-23T06:38:22.255Z,11.20
2022-10-23T06:40:55.946Z,11.20
2022-10-23T06:43:34.616Z,11.20
2022-10-23T06:46:29.944Z,11.20
2022-10-23T06:48:56.688Z,11.30
2022-10-23T06:51:29.635Z,11.30
2022-10-23T06:53:57.938Z,11.40
2022-10-23T06:56:43.114Z,11.40
2022-10-23T06:59:11.130Z,11.40
2022-10-23T07:01:38.863Z,11.50
2022-10-23T07:04:06.842Z,11.50
2022-10-23T07:06:33.645Z,11.50
2022-10-23T07:09:00.412Z,11.60
2022-10-23T07:11:45.791Z,11.60
2022-10-23T07:14:13.037Z,11.60
2022-10-23T07:16:40.096Z,11.70
2022-10-23T07:19:09.083Z,11.70
2022-10-23T07:21:38.778Z,11.80
2022-10-23T07:24:37.175Z,11.80
2022-10-23T07:27:10.257Z,11.90
2022-10-23T07:29:38.393Z,11.90
2022-10-23T07:32:06.078Z,11.90
2022-10-23T07:34:51.381Z,12.00
2022-10-23T07:37:38.771Z,12.10
2022-10-23T07:40:14.358Z,12.10
2022-10-23T07:42:44.637Z,12.20
2022-10-23T07:45:12.572Z,12.20
2022-10-23T07:47:51.843Z,12.30
2022-10-23T07:50:20.687Z,12.40
2022-10-23T07:52:48.316Z,12.40
2022-10-23T07:55:17.900Z,12.50
2022-10-23T07:57:50.902Z,12.50
2022-10-23T08:00:27.521Z,12.60
2022-10-23T08:03:04.291Z,12.60
2022-10-23T08:05:32.693Z,12.70
2022-10-23T08:08:01.622Z,12.70
2022-10-23T08:10:29.939Z,12.80
2022-10-23T08:12:58.882Z,12.80
2022-10-23T08:15:46.221Z,12.90
2022-10-23T08:18:33.085Z,13.00
2022-10-23T08:21:04.806Z,13.00
2022-10-23T08:23:33.780Z,13.10
2022-10-23T08:26:05.838Z,13.10
2022-10-23T08:28:33.122Z,13.20
2022-10-23T08:31:11.402Z,13.20
2022-10-23T08:33:40.288Z,13.20
2022-10-23T08:36:18.542Z,13.30
2022-10-23T08:38:45.801Z,13.30
2022-10-23T08:41:23.831Z,13.30
2022-10-23T08:44:21.215Z,13.30
2022-10-23T08:46:55.887Z,13.40
2022-10-23T08:50:03.381Z,13.40
2022-10-23T08:52:44.962Z,13.40
2022-10-23T08:55:23.343Z,13.50
2022-10-23T08:58:05.898Z,13.50
2022-10-23T09:00:33.457Z,13.60
2022-10-23T09:03:05.508Z,13.60
2022-10-23T09:05:41.012Z,13.70
2022-10-23T09:08:25.931Z,13.70
2022-10-23T09:11:13.899Z,13.70
2022-10-23T09:14:08.794Z,13.80
2022-10-23T09:17:09.579Z,13.90
2022-10-23T09:19:36.672Z,13.90
2022-10-23T09:22:06.810Z,13.90
2022-10-23T09:24:33.923Z,14.00
2022-10-23T09:27:00.841Z,14.10
2022-10-23T09:29:35.800Z,14.20
2022-10-23T09:32:05.890Z,14.30
2022-10-23T09:34:34.657Z,14.40
2022-10-23T09:37:04.905Z,14.40
2022-10-23T09:39:39.369Z,14.50
2022-10-23T09:42:26.603Z,14.50
2022-10-23T09:44:54.774Z,14.60
2022-10-23T09:47:25.768Z,14.60
2022-10-23T09:49:54.838Z,14.70
2022-10-23T09:52:21.582Z,14.80
2022-10-23T09:55:02.994Z,14.80
2022-10-23T09:57:44.052Z,14.90
2022-10-23T10:00:14.061Z,15.00
2022-10-23T10:02:43.304Z,15.10
2022-10-23T10:05:42.225Z,15.20
2022-10-23T10:08:32.328Z,15.20
2022-10-23T10:11:10.794Z,15.30
2022-10-23T10:14:04.705Z,15.40
2022-10-23T10:20:03.792Z,15.50
2022-10-23T10:22:36.389Z,15.50
2022-10-23T10:25:14.479Z,15.60
2022-10-23T10:28:19.019Z,15.70
2022-10-23T10:31:12.992Z,15.80
2022-10-23T10:34:24.888Z,15.80
2022-10-23T10:36:57.909Z,15.90
2022-10-23T10:39:42.847Z,16.00
2022-10-23T10:42:35.715Z,16.00
2022-10-23T10:45:33.015Z,16.10
2022-10-23T10:48:24.520Z,16.20
2022-10-23T10:51:39.252Z,16.20
2022-10-23T10:54:20.758Z,16.20
2022-10-23T10:56:48.589Z,16.30
2022-10-23T10:59:25.351Z,16.40
2022-10-23T11:02:20.437Z,16.50
2022-10-23T11:04:58.036Z,16.50
2022-10-23T11:07:30.767Z,16.60
2022-10-23T11:10:00.324Z,16.70
2022-10-23T11:12:29.454Z,16.80
2022-10-23T11:14:57.005Z,16.90
2022-10-23T11:17:28.842Z,16.90
2022-10-23T11:20:16.517Z,17.00
2022-10-23T11:22:56.053Z,17.00
2022-10-23T11:25:54.455Z,17.00
2022-10-23T11:28:59.044Z,17.10
2022-10-23T11:31:38.724Z,17.20
2022-10-23T11:34:38.353Z,17.20
2022-10-23T11:37:05.667Z,17.30
2022-10-23T11:39:39.255Z,17.30
2022-10-23T11:42:13.858Z,17.40
2022-10-23T11:44:47.515Z,17.50
2022-10-23T11:47:39.577Z,17.50
2022-10-23T11:50:07.217Z,17.60
2022-10-23T11:52:45.443Z,17.60
2022-10-23T11:55:20.565Z,17.60
2022-10-23T11:58:07.155Z,17.60
2022-10-23T12:00:39.409Z,17.60
2022-10-23T12:03:17.390Z,17.70
2022-10-23T12:05:45.612Z,17.70
2022-10-23T12:08:23.319Z,17.70
2022-10-23T12:10:52.863Z,17.70
2022-10-23T12:13:37.743Z,17.70
2022-10-23T12:16:07.390Z,17.90
2022-10-23T12:18:47.661Z,17.90
2022-10-23T12:21:27.900Z,17.90
2022-10-23T12:24:08.948Z,18.00
2022-10-23T12:27:02.489Z,18.00
2022-10-23T12:29:53.250Z,18.10
2022-10-23T12:32:28.052Z,18.10
2022-10-23T12:35:06.794Z,18.10
2022-10-23T12:37:55.178Z,18.10
2022-10-23T12:40:29.633Z,18.20
2022-10-23T12:42:59.984Z,18.20
2022-10-23T12:45:34.245Z,18.20
2022-10-23T12:48:00.994Z,18.30
2022-10-23T12:50:30.684Z,18.30
2022-10-23T12:53:03.201Z,18.40
2022-10-23T12:55:51.606Z,18.40
2022-10-23T12:58:27.500Z,18.50
2022-10-23T13:00:59.368Z,18.60
2022-10-23T13:03:28.905Z,18.60
2022-10-23T13:06:02.893Z,18.60
2022-10-23T13:08:43.073Z,18.70
2022-10-23T13:11:36.941Z,18.70
2022-10-23T13:14:14.572Z,18.70
2022-10-23T13:16:41.371Z,18.70
2022-10-23T13:19:27.276Z,18.80
2022-10-23T13:21:54.193Z,18.80
2022-10-23T13:24:22.476Z,18.80
2022-10-23T13:26:49.241Z,18.80
2022-10-23T13:29:31.301Z,18.80
2022-10-23T13:32:09.034Z,18.90
2022-10-23T13:34:35.739Z,18.90
2022-10-23T13:37:22.843Z,18.90
2022-10-23T13:40:05.664Z,18.90
2022-10-23T13:42:32.394Z,18.90
2022-10-23T13:44:59.070Z,19.00
2022-10-23T13:47:25.908Z,19.00
2022-10-23T13:49:52.663Z,19.00
2022-10-23T13:52:23.364Z,19.00
2022-10-23T13:54:50.633Z,19.00
2022-10-23T13:57:17.365Z,19.00
2022-10-23T13:59:45.358Z,18.90
2022-10-23T14:02:21.425Z,18.90
2022-10-23T14:04:49.816Z,18.90
2022-10-23T14:07:16.815Z,18.90
2022-10-23T14:09:43.743Z,18.90
2022-10-23T14:12:11.859Z,18.80
2022-10-23T14:14:38.699Z,18.80
2022-10-23T14:17:05.469Z,18.80
2022-10-23T14:19:33.784Z,18.70
2022-10-23T14:22:00.556Z,18.70
2022-10-23T14:24:27.236Z,18.70
2022-10-23T14:26:53.966Z,18.60
2022-10-23T14:29:24.080Z,18.60
2022-10-23T14:31:51.608Z,18.60
2022-10-23T14:34:18.399Z,18.60
2022-10-23T14:36:50.901Z,18.60
2022-10-23T14:39:23.462Z,18.50
2022-10-23T14:41:50.163Z,18.60
2022-10-23T14:44:16.921Z,18.50
2022-10-23T14:46:43.690Z,18.50
2022-10-23T14:49:10.405Z,18.50
2022-10-23T14:51:37.187Z,18.50
2022-10-23T14:54:05.788Z,18.50
2022-10-23T14:56:35.659Z,18.50
2022-10-23T14:59:02.850Z,18.40
2022-10-23T15:01:35.932Z,18.40
2022-10-23T15:04:02.875Z,18.40
2022-10-23T15:06:29.567Z,18.40
2022-10-23T15:08:56.534Z,18.40
2022-10-23T15:11:24.574Z,18.40
2022-10-23T15:13:51.625Z,18.40
2022-10-23T15:16:18.445Z,18.40
2022-10-23T15:18:45.163Z,18.50
2022-10-23T15:21:11.900Z,18.50
2022-10-23T15:23:40.784Z,18.60
2022-10-23T15:26:11.441Z,18.60
2022-10-23T15:28:38.307Z,18.60
2022-10-23T15:31:05.911Z,18.60
2022-10-23T15:33:32.805Z,18.60
2022-10-23T15:35:59.559Z,18.70
2022-10-23T15:38:26.276Z,18.60
2022-10-23T15:41:03.764Z,18.60
2022-10-23T15:43:30.470Z,18.60
2022-10-23T15:45:57.179Z,18.60
2022-10-23T15:48:23.900Z,18.50
2022-10-23T15:50:50.612Z,18.50
2022-10-23T15:53:17.277Z,18.50
2022-10-23T15:55:43.987Z,18.40
2022-10-23T15:58:11.344Z,18.40
2022-10-23T16:00:39.226Z,18.40
2022-10-23T16:03:05.943Z,18.40
2022-10-23T16:05:32.640Z,18.30
2022-10-23T16:07:59.398Z,18.30
2022-10-23T16:10:26.191Z,18.30
2022-10-23T16:12:52.918Z,18.20
2022-10-23T16:15:19.687Z,18.10
2022-10-23T16:17:46.727Z,18.00
2022-10-23T16:20:13.523Z,17.90
2022-10-23T16:22:42.780Z,17.90
2022-10-23T16:25:11.785Z,17.80
2022-10-23T16:27:38.750Z,17.80
2022-10-23T16:30:08.910Z,17.70
2022-10-23T16:32:36.505Z,17.70
2022-10-23T16:35:03.243Z,17.70
2022-10-23T16:37:39.778Z,17.70
2022-10-23T16:40:12.450Z,17.60
2022-10-23T16:42:58.518Z,17.60
2022-10-23T16:45:34.407Z,17.60
2022-10-23T16:48:03.921Z,17.60
2022-10-23T16:50:30.703Z,17.50
2022-10-23T16:52:57.423Z,17.50
2022-10-23T16:55:24.109Z,17.50
2022-10-23T16:57:50.813Z,17.50
2022-10-23T17:00:21.839Z,17.50
2022-10-23T17:02:48.732Z,17.40
2022-10-23T17:05:15.652Z,17.40
2022-10-23T17:07:42.742Z,17.40
2022-10-23T17:10:09.937Z,17.40
2022-10-23T17:12:36.808Z,17.40
2022-10-23T17:15:03.845Z,17.40
2022-10-23T17:17:30.575Z,17.40
2022-10-23T17:19:57.252Z,17.30
2022-10-23T17:22:23.987Z,17.30
2022-10-23T17:24:53.876Z,17.30
2022-10-23T17:27:21.336Z,17.30
2022-10-23T17:29:48.137Z,17.30
2022-10-23T17:32:15.036Z,17.30
2022-10-23T17:34:41.811Z,17.30
2022-10-23T17:37:10.048Z,17.40
2022-10-23T17:39:36.884Z,17.40
2022-10-23T17:42:03.704Z,17.30
2022-10-23T17:44:30.511Z,17.40
2022-10-23T17:46:57.222Z,17.40
2022-10-23T17:49:24.730Z,17.30
2022-10-23T17:51:53.720Z,17.30
2022-10-23T17:54:20.602Z,17.30
2022-10-23T17:56:47.408Z,17.30
2022-10-23T17:59:17.429Z,17.20
2022-10-23T18:01:46.340Z,17.20
2022-10-23T18:04:13.667Z,17.10
2022-10-23T18:06:45.960Z,17.10
2022-10-23T18:09:12.960Z,17.10
2022-10-23T18:11:46.812Z,17.00
2022-10-23T18:14:15.353Z,17.00
2022-10-23T18:16:42.670Z,17.00
2022-10-23T18:19:10.857Z,16.90
2022-10-23T18:21:37.978Z,16.90
2022-10-23T18:24:05.051Z,16.90
2022-10-23T18:26:35.008Z,16.90
2022-10-23T18:29:04.153Z,16.90
2022-10-23T18:31:30.983Z,16.90
2022-10-23T18:34:13.519Z,16.90
2022-10-23T18:36:41.075Z,17.00
2022-10-23T18:39:11.039Z,17.00
2022-10-23T18:41:41.743Z,17.00
2022-10-23T18:44:09.901Z,17.00
2022-10-23T18:46:37.106Z,17.00
2022-10-23T18:49:04.490Z,17.00
2022-10-23T18:51:34.218Z,17.00
2022-10-23T18:54:12.657Z,16.90
2022-10-23T18:56:39.815Z,16.90
2022-10-23T18:59:10.517Z,16.90
2022-10-23T19:01:37.421Z,16.90
2022-10-23T19:04:04.721Z,16.90
2022-10-23T19:06:32.756Z,16.80
2022-10-23T19:08:59.458Z,16.80
2022-10-23T19:11:27.651Z,16.80
2022-10-23T19:13:54.612Z,16.80
2022-10-23T19:16:34.559Z,16.90
2022-10-23T19:19:15.591Z,16.90
2022-10-23T19:21:43.637Z,16.90
2022-10-23T19:24:17.763Z,16.90
2022-10-23T19:26:44.688Z,17.00
2022-10-23T19:29:15.278Z,17.10
2022-10-23T19:31:45.451Z,17.10
2022-10-23T19:34:12.152Z,17.10
2022-10-23T19:36:38.825Z,17.20
2022-10-23T19:39:05.522Z,17.20
2022-10-23T19:41:32.278Z,17.20
2022-10-23T19:43:59.053Z,17.20
2022-10-23T19:46:27.020Z,17.20
2022-10-23T19:48:53.708Z,17.20
2022-10-23T19:51:20.379Z,17.30
2022-10-23T19:53:47.135Z,17.20
2022-10-23T19:56:14.046Z,17.20
2022-10-23T19:58:41.049Z,17.30
2022-10-23T20:01:26.093Z,17.30
2022-10-23T20:03:53.383Z,17.30
2022-10-23T20:06:23.505Z,17.40
2022-10-23T20:08:50.403Z,17.40
2022-10-23T20:11:28.128Z,17.40
2022-10-23T20:13:56.491Z,17.40
2022-10-23T20:16:26.629Z,17.50
2022-10-23T20:18:53.865Z,17.50
2022-10-23T20:21:20.781Z,17.50
2022-10-23T20:23:47.710Z,17.50
2022-10-23T20:26:17.648Z,17.60
2022-10-23T20:28:46.941Z,17.60
2022-10-23T20:31:15.833Z,17.60
2022-10-23T20:33:42.867Z,17.60
2022-10-23T20:36:29.776Z,17.70
2022-10-23T20:38:58.148Z,17.70
2022-10-23T20:41:27.068Z,17.70
2022-10-23T20:43:55.802Z,17.70
2022-10-23T20:46:22.867Z,17.70
2022-10-23T20:48:49.992Z,17.70
2022-10-23T20:51:18.940Z,17.70
2022-10-23T20:53:47.661Z,17.70
2022-10-23T20:56:20.982Z,17.70
2022-10-23T20:58:47.682Z,17.80
2022-10-23T21:01:18.742Z,17.80
2022-10-23T21:03:53.720Z,17.80
2022-10-23T21:06:20.422Z,17.80
2022-10-23T21:08:47.262Z,17.80
2022-10-23T21:11:16.126Z,17.80
2022-10-23T21:13:44.231Z,17.80
2022-10-23T21:16:24.877Z,17.80
2022-10-23T21:18:55.136Z,17.80
2022-10-23T21:21:22.310Z,17.80
2022-10-23T21:23:52.449Z,17.80
2022-10-23T21:26:21.168Z,17.80
2022-10-23T21:28:56.103Z,17.80
2022-10-23T21:31:28.219Z,17.80
2022-10-23T21:33:54.994Z,17.80
2022-10-23T21:36:23.620Z,17.80
2022-10-23T21:38:56.152Z,17.80
2022-10-23T21:41:25.835Z,17.80
2022-10-23T21:43:54.851Z,17.80
2022-10-23T21:46:22.302Z,17.70
2022-10-23T21:48:49.006Z,17.70
2022-10-23T21:51:24.027Z,17.70
2022-10-23T21:53:52.410Z,17.70
2022-10-23T21:56:42.888Z,17.70
2022-10-23T21:59:13.365Z,17.70
2022-10-23T22:01:45.234Z,17.70
2022-10-23T22:04:14.228Z,17.70
2022-10-23T22:06:42.737Z,17.70
2022-10-23T22:09:13.721Z,17.70
2022-10-23T22:11:40.784Z,17.70
2022-10-23T22:14:07.642Z,17.60
2022-10-23T22:16:34.615Z,17.60
2022-10-23T22:19:01.326Z,17.60
2022-10-23T22:21:29.705Z,17.60
2022-10-23T22:23:58.654Z,17.60
2022-10-23T22:26:29.078Z,17.60
2022-10-23T22:28:58.383Z,17.50
2022-10-23T22:31:28.092Z,17.50
2022-10-23T22:33:56.205Z,17.50
2022-10-23T22:36:22.919Z,17.50
2022-10-23T22:38:49.609Z,17.50
2022-10-23T22:41:16.874Z,17.50
2022-10-23T22:43:43.666Z,17.50
2022-10-23T22:46:16.513Z,17.40
2022-10-23T22:48:43.785Z,17.50
2022-10-23T22:51:15.849Z,17.50
2022-10-23T22:53:43.205Z,17.50
2022-10-23T22:56:30.172Z,17.50
2022-10-23T22:58:57.932Z,17.40
2022-10-23T23:01:44.113Z,17.40
2022-10-23T23:04:36.844Z,17.40
2022-10-23T23:07:04.826Z,17.40
2022-10-23T23:09:31.495Z,17.40
2022-10-23T23:11:58.190Z,17.40
2022-10-23T23:14:24.886Z,17.40
2022-10-23T23:16:52.968Z,17.40
2022-10-23T23:19:20.043Z,17.40
2022-10-23T23:21:46.814Z,17.40
2022-10-23T23:24:13.527Z,17.40
2022-10-23T23:26:40.705Z,17.40
2022-10-23T23:29:07.583Z,17.40
2022-10-23T23:31:34.329Z,17.40
2022-10-23T23:34:01.127Z,17.30
2022-10-23T23:36:28.531Z,17.30
2022-10-23T23:38:56.694Z,17.30
2022-10-23T23:41:24.478Z,17.30
2022-10-23T23:43:52.803Z,17.20
2022-10-23T23:46:19.468Z,17.20
2022-10-23T23:48:48.739Z,17.20
2022-10-23T23:51:23.311Z,17.20
2022-10-23T23:53:50.697Z,17.10
2022-10-23T23:56:18.330Z,17.10
2022-10-23T23:58:45.334Z,17.10
